Time;durP1;ratioP1;P1;durP2;ratioP2;P2;SDS_P1;SDS_P2;PMS_P1;PMS_P2;Temp;Humidity;BMP_temperature;BMP_pressure;BME280_temperature;BME280_humidity;BME280_pressure;Samples;Min_cycle;Max_cycle;Signal;HPM_P1;HPM_P2
2022/06/27 00:01:23;;;;;;;14.35;9.55;;;17.70;99.90;;;;;;6247804;22;20082;-91
2022/06/27 00:04:07;;;;;;;16.50;9.13;;;18.40;99.90;;;;;;6248228;22;20697;-91
2022/06/27 00:06:36;;;;;;;12.52;8.05;;;17.60;99.90;;;;;;6275947;22;20085;-91
2022/06/27 00:09:05;;;;;;;13.32;8.57;;;17.60;99.90;;;;;;6250234;22;20306;-92
2022/06/27 00:12:15;;;;;;;14.63;9.27;;;17.60;99.90;;;;;;6096492;23;20028;-91
2022/06/27 00:15:18;;;;;;;14.10;8.32;;;17.70;99.90;;;;;;6152482;23;20021;-91
2022/06/27 00:17:46;;;;;;;14.85;9.57;;;17.70;99.90;;;;;;6153548;23;20024;-91
2022/06/27 00:20:21;;;;;;;14.57;9.20;;;18.20;99.90;;;;;;6153666;23;20028;-90
2022/06/27 00:22:47;;;;;;;15.90;8.70;;;17.60;99.90;;;;;;6153150;23;20069;-91
2022/06/27 00:25:12;;;;;;;15.02;9.07;;;17.50;99.90;;;;;;6130914;23;20014;-91
2022/06/27 00:27:38;;;;;;;14.77;9.25;;;18.30;99.90;;;;;;6155401;23;20022;-91
2022/06/27 00:30:22;;;;;;;15.27;9.18;;;17.90;99.90;;;;;;6129114;23;20447;-91
2022/06/27 00:32:48;;;;;;;13.75;8.98;;;17.40;99.90;;;;;;6154185;23;20068;-91
2022/06/27 00:35:14;;;;;;;15.02;8.85;;;18.10;99.90;;;;;;6156764;23;20315;-91
2022/06/27 00:38:01;;;;;;;14.48;9.25;;;17.40;99.90;;;;;;6129084;23;20024;-91
2022/06/27 00:40:36;;;;;;;12.95;8.70;;;17.40;99.90;;;;;;6154025;23;20017;-91
2022/06/27 00:43:05;;;;;;;14.48;9.45;;;17.40;99.90;;;;;;6128370;23;20025;-91
2022/06/27 00:45:46;;;;;;;14.25;8.77;;;17.40;99.90;;;;;;6128851;23;20020;-92
2022/06/27 00:48:14;;;;;;;14.65;9.52;;;17.40;99.90;;;;;;6241724;22;20073;-91
2022/06/27 00:50:45;;;;;;;14.02;8.82;;;17.90;99.90;;;;;;6247965;22;20444;-91
2022/06/27 00:53:28;;;;;;;15.57;9.80;;;17.90;99.90;;;;;;6276787;22;20011;-91
2022/06/27 00:56:06;;;;;;;13.07;8.70;;;17.60;99.90;;;;;;6248998;22;20011;-91
2022/06/27 00:58:36;;;;;;;14.63;9.15;;;17.90;99.90;;;;;;6250096;22;20107;-90
2022/06/27 01:01:09;;;;;;;15.70;9.32;;;17.90;99.90;;;;;;6248773;22;20012;-92
2022/06/27 01:03:40;;;;;;;14.60;9.10;;;18.10;99.90;;;;;;6275937;22;20090;-92
2022/06/27 01:06:06;;;;;;;16.20;9.80;;;17.40;99.90;;;;;;6249994;22;20020;-92
2022/06/27 01:08:32;;;;;;;16.50;9.65;;;17.30;99.90;;;;;;6277209;22;20008;-91
2022/06/27 01:11:04;;;;;;;15.80;9.95;;;17.60;99.90;;;;;;6247853;22;20070;-91
2022/06/27 01:13:30;;;;;;;14.40;9.30;;;17.40;99.90;;;;;;6277195;22;20015;-91
2022/06/27 01:15:56;;;;;;;16.15;9.98;;;18.00;99.90;;;;;;6276535;22;20011;-91
2022/06/27 01:18:22;;;;;;;15.35;10.15;;;17.70;99.90;;;;;;6249456;22;20039;-91
2022/06/27 01:20:47;;;;;;;14.35;9.38;;;17.70;99.90;;;;;;6277451;22;20023;-91
2022/06/27 01:23:13;;;;;;;15.48;9.90;;;17.40;99.90;;;;;;6276950;22;20027;-91
2022/06/27 01:25:39;;;;;;;14.23;10.05;;;17.50;99.90;;;;;;6276155;22;20471;-92
2022/06/27 01:28:07;;;;;;;15.98;9.95;;;17.60;99.90;;;;;;6250123;22;20020;-92
2022/06/27 01:30:37;;;;;;;15.48;9.75;;;17.40;99.90;;;;;;6247949;22;20015;-90
2022/06/27 01:33:03;;;;;;;18.10;10.65;;;17.40;99.90;;;;;;6249492;22;20490;-92
2022/06/27 01:36:41;;;;;;;15.90;10.88;;;18.30;99.90;;;;;;6250459;22;20022;-91
2022/06/27 01:38:56;;;;;;;18.40;10.82;;;18.00;99.90;;;;;;6249152;22;20051;-91
2022/06/27 01:41:21;;;;;;;17.63;10.57;;;17.30;99.90;;;;;;6277416;22;20019;-92
2022/06/27 01:44:07;;;;;;;17.35;10.60;;;17.30;99.90;;;;;;6249257;22;20011;-92
2022/06/27 01:47:00;;;;;;;16.27;10.27;;;17.20;99.90;;;;;;6276887;22;20091;-93
2022/06/27 01:49:28;;;;;;;16.60;10.13;;;17.20;99.90;;;;;;6250120;22;20015;-93
2022/06/27 01:52:13;;;;;;;20.30;12.05;;;17.20;99.90;;;;;;6249415;22;20322;-94
2022/06/27 01:54:45;;;;;;;19.20;11.50;;;17.10;99.90;;;;;;6250344;22;20061;-95
2022/06/27 01:57:35;;;;;;;18.48;12.40;;;17.10;99.90;;;;;;6251032;22;20452;-95
2022/06/27 02:00:22;;;;;;;19.67;12.20;;;17.00;99.90;;;;;;6276739;22;20024;-93
2022/06/27 02:03:03;;;;;;;20.48;12.43;;;17.40;99.90;;;;;;6249936;22;20094;-93
2022/06/27 02:05:32;;;;;;;19.10;11.00;;;17.50;99.90;;;;;;6277607;22;20448;-93
2022/06/27 02:08:33;;;;;;;19.42;12.15;;;17.00;99.90;;;;;;6285336;22;20034;-92
2022/06/27 02:11:21;;;;;;;19.42;12.07;;;16.90;99.90;;;;;;6283239;22;20049;-91
2022/06/27 02:13:53;;;;;;;18.05;11.20;;;17.60;99.90;;;;;;6277395;22;20008;-91
2022/06/27 02:16:34;;;;;;;20.88;12.88;;;17.00;99.90;;;;;;6249677;22;20042;-91
2022/06/27 02:19:41;;;;;;;18.42;11.80;;;17.30;99.90;;;;;;6249712;22;20027;-91
2022/06/27 02:22:25;;;;;;;19.92;11.93;;;16.90;99.90;;;;;;6234086;22;20066;-92
2022/06/27 02:25:13;;;;;;;20.70;12.02;;;16.90;99.90;;;;;;6276420;22;20023;-92
2022/06/27 02:27:39;;;;;;;18.70;12.20;;;16.80;99.90;;;;;;6275876;22;20015;-92
2022/06/27 02:30:05;;;;;;;20.35;12.55;;;16.80;99.90;;;;;;6267596;22;20016;-91
2022/06/27 02:32:37;;;;;;;20.83;13.10;;;16.80;99.90;;;;;;6248475;22;20091;-90
2022/06/27 02:35:07;;;;;;;21.80;13.00;;;16.80;99.90;;;;;;6248404;22;20336;-90
2022/06/27 02:37:41;;;;;;;19.88;12.48;;;16.80;99.90;;;;;;6249353;22;20432;-89
2022/06/27 02:40:14;;;;;;;21.48;13.43;;;17.50;99.90;;;;;;6248980;22;20018;-90
2022/06/27 02:42:57;;;;;;;20.45;12.88;;;17.40;99.90;;;;;;6247147;22;20043;-89
2022/06/27 02:45:43;;;;;;;22.77;14.18;;;17.40;99.90;;;;;;6276196;22;20038;-89
2022/06/27 02:48:31;;;;;;;23.17;14.23;;;17.50;99.90;;;;;;6275526;22;20020;-89
2022/06/27 02:51:40;;;;;;;23.15;14.55;;;17.60;99.90;;;;;;6248228;22;20012;-88
2022/06/27 02:54:39;;;;;;;22.45;14.48;;;17.20;99.90;;;;;;6247765;22;20020;-89
2022/06/27 02:57:35;;;;;;;24.52;14.85;;;16.70;99.90;;;;;;6274951;22;20023;-90
2022/06/27 03:00:07;;;;;;;26.52;15.23;;;16.50;99.90;;;;;;6275075;22;20095;-90
2022/06/27 03:02:42;;;;;;;24.77;14.85;;;16.40;99.90;;;;;;6247510;22;20015;-91
2022/06/27 03:05:14;;;;;;;22.55;14.23;;;16.70;99.90;;;;;;6248483;22;20007;-92
2022/06/27 03:07:58;;;;;;;24.42;15.98;;;16.60;99.90;;;;;;6276401;22;20027;-91
2022/06/27 03:10:25;;;;;;;22.08;12.77;;;17.60;99.90;;;;;;6248364;22;20015;-92
2022/06/27 03:12:50;;;;;;;22.00;11.82;;;17.10;99.90;;;;;;6248723;22;20374;-91
2022/06/27 03:15:18;;;;;;;17.77;10.85;;;16.40;99.90;;;;;;6249081;22;20057;-92
2022/06/27 03:17:44;;;;;;;17.30;9.95;;;16.60;99.90;;;;;;6247708;22;20023;-92
2022/06/27 03:20:11;;;;;;;17.08;9.75;;;16.30;99.90;;;;;;6248649;22;20015;-92
2022/06/27 03:22:42;;;;;;;15.93;9.50;;;16.40;99.90;;;;;;6283735;22;20016;-92
2022/06/27 03:25:11;;;;;;;14.93;8.43;;;16.70;99.90;;;;;;6276848;22;20012;-92
2022/06/27 03:27:52;;;;;;;13.73;7.75;;;16.30;99.90;;;;;;6275762;22;20012;-94
2022/06/27 03:30:18;;;;;;;13.45;7.65;;;16.60;99.90;;;;;;6273621;22;20377;-93
2022/06/27 03:32:43;;;;;;;14.52;8.32;;;17.00;99.90;;;;;;6276324;22;20083;-93
2022/06/27 03:35:09;;;;;;;13.88;7.38;;;15.90;99.90;;;;;;6276631;22;20404;-93
2022/06/27 03:37:36;;;;;;;13.73;8.05;;;16.60;99.90;;;;;;6248873;22;20011;-92
2022/06/27 03:40:05;;;;;;;12.77;7.45;;;16.90;99.90;;;;;;6249086;22;20019;-93
2022/06/27 03:42:34;;;;;;;12.90;7.35;;;16.00;99.90;;;;;;6278229;22;20012;-92
2022/06/27 03:45:09;;;;;;;13.73;8.00;;;16.30;99.90;;;;;;6277969;22;20034;-92
2022/06/27 03:49:59;;;;;;;13.75;7.10;;;16.00;99.90;;;;;;6275567;22;20094;-92
2022/06/27 03:51:28;;;;;;;12.02;6.72;;;16.20;99.90;;;;;;6247272;22;20466;-92
2022/06/27 03:53:54;;;;;;;13.88;7.80;;;15.90;99.90;;;;;;6277661;22;20332;-94
2022/06/27 03:56:24;;;;;;;13.27;7.25;;;15.70;99.90;;;;;;6277939;22;20099;-94
2022/06/27 03:58:55;;;;;;;12.88;7.60;;;16.90;99.90;;;;;;6250676;22;20020;-94
2022/06/27 04:01:21;;;;;;;13.00;7.45;;;16.70;99.90;;;;;;6250569;22;20056;-94
2022/06/27 04:04:03;;;;;;;12.35;7.10;;;16.10;99.90;;;;;;6250624;22;20441;-95
2022/06/27 04:06:45;;;;;;;15.55;7.88;;;15.90;99.90;;;;;;6250219;22;20023;-93
2022/06/27 04:09:14;;;;;;;13.35;7.45;;;15.90;99.90;;;;;;6251260;22;20015;-93
2022/06/27 04:11:50;;;;;;;14.45;8.00;;;15.90;99.90;;;;;;6278848;22;20039;-92
2022/06/27 04:14:22;;;;;;;12.00;7.22;;;16.40;99.90;;;;;;6251398;22;20016;-94
2022/06/27 04:16:52;;;;;;;14.57;8.02;;;16.40;99.90;;;;;;6251118;22;20020;-94
2022/06/27 04:19:18;;;;;;;13.95;8.23;;;16.50;99.90;;;;;;6251499;22;20011;-94
2022/06/27 04:21:46;;;;;;;14.73;8.18;;;16.80;99.90;;;;;;6277667;22;20035;-93
2022/06/27 04:24:26;;;;;;;14.70;8.18;;;15.70;99.90;;;;;;6251040;22;20015;-93
2022/06/27 04:31:06;;;;;;;16.05;9.65;;;15.90;99.90;;;;;;6276856;22;20019;-92
2022/06/27 04:33:33;;;;;;;17.42;9.60;;;15.80;99.90;;;;;;6249537;22;20016;-93
2022/06/27 04:36:00;;;;;;;16.85;9.52;;;16.70;99.90;;;;;;6277444;22;20008;-93
2022/06/27 04:38:26;;;;;;;16.92;9.52;;;16.70;99.90;;;;;;6251044;22;20015;-94
2022/06/27 04:41:08;;;;;;;18.23;9.93;;;16.60;99.90;;;;;;6249825;22;20004;-93
2022/06/27 04:46:12;;;;;;;16.23;8.77;;;15.90;99.90;;;;;;6277945;22;20023;-93
2022/06/27 04:48:51;;;;;;;15.93;8.70;;;15.90;99.90;;;;;;6277761;22;20022;-92
2022/06/27 04:51:20;;;;;;;16.85;8.55;;;15.90;99.90;;;;;;6250384;22;20094;-92
2022/06/27 04:53:49;;;;;;;15.07;8.50;;;15.80;99.90;;;;;;6253569;22;20012;-92
2022/06/27 04:56:14;;;;;;;15.18;8.02;;;16.20;99.90;;;;;;6281806;22;20016;-92
2022/06/27 04:58:46;;;;;;;14.85;8.20;;;16.20;99.90;;;;;;6249618;22;20012;-92
2022/06/27 05:01:21;;;;;;;12.63;6.57;;;16.40;99.90;;;;;;6250379;22;20015;-91
2022/06/27 05:04:02;;;;;;;11.85;5.82;;;15.80;99.90;;;;;;6249132;22;20020;-91
2022/06/27 05:06:40;;;;;;;12.80;6.43;;;16.40;99.90;;;;;;6250526;22;20432;-91
2022/06/27 05:09:24;;;;;;;10.20;5.07;;;16.00;99.90;;;;;;6250636;22;20057;-91
2022/06/27 05:11:59;;;;;;;10.38;5.00;;;16.40;99.90;;;;;;6251500;22;20016;-93
2022/06/27 05:14:34;;;;;;;9.48;4.32;;;15.80;99.90;;;;;;6254028;22;20347;-91
2022/06/27 05:17:15;;;;;;;11.35;5.20;;;16.20;99.90;;;;;;6276869;22;20046;-91
2022/06/27 05:19:50;;;;;;;11.48;5.45;;;16.30;99.90;;;;;;6274407;22;20047;-92
2022/06/27 05:22:19;;;;;;;10.40;5.97;;;16.00;99.90;;;;;;6255182;22;20011;-92
2022/06/27 05:24:58;;;;;;;11.57;6.50;;;16.20;99.90;;;;;;6254140;22;20444;-93
2022/06/27 05:27:23;;;;;;;11.05;6.03;;;16.20;99.90;;;;;;6253333;22;20012;-93
2022/06/27 05:29:58;;;;;;;12.48;6.38;;;15.50;99.90;;;;;;6250304;22;20012;-93
2022/06/27 05:32:30;;;;;;;11.50;6.65;;;16.50;99.90;;;;;;6278184;22;20086;-92
2022/06/27 05:34:59;;;;;;;11.90;6.40;;;15.90;99.90;;;;;;6250141;22;20019;-92
2022/06/27 05:37:27;;;;;;;11.40;5.97;;;16.30;99.90;;;;;;6276840;22;20325;-93
2022/06/27 05:39:59;;;;;;;12.30;6.25;;;15.50;99.90;;;;;;6248510;22;20439;-93
2022/06/27 05:42:25;;;;;;;11.80;5.82;;;16.40;99.90;;;;;;6277373;22;20018;-92
2022/06/27 05:45:07;;;;;;;12.95;6.40;;;16.50;99.90;;;;;;6248834;22;20016;-93
2022/06/27 05:48:13;;;;;;;12.18;6.32;;;15.80;99.90;;;;;;6277124;22;20530;-93
2022/06/27 05:50:42;;;;;;;11.57;6.25;;;15.70;99.90;;;;;;6250368;22;20041;-93
2022/06/27 05:53:24;;;;;;;11.18;5.75;;;16.40;99.90;;;;;;6276547;22;20066;-93
2022/06/27 05:55:56;;;;;;;12.18;5.80;;;16.50;99.90;;;;;;6248724;22;20105;-92
2022/06/27 05:58:23;;;;;;;10.20;5.28;;;15.80;99.90;;;;;;6251558;22;20019;-93
2022/06/27 06:01:14;;;;;;;10.00;5.03;;;16.10;99.90;;;;;;6275877;22;20026;-93
2022/06/27 06:03:51;;;;;;;10.63;5.35;;;15.70;99.90;;;;;;6248560;22;20015;-93
2022/06/27 06:06:17;;;;;;;11.20;4.88;;;16.70;99.90;;;;;;6249230;22;20015;-93
2022/06/27 06:08:43;;;;;;;11.48;5.22;;;16.40;99.90;;;;;;6249669;22;20022;-92
2022/06/27 06:11:13;;;;;;;10.07;5.10;;;16.40;99.90;;;;;;6249697;22;20377;-93
2022/06/27 06:13:57;;;;;;;9.95;4.70;;;15.90;99.90;;;;;;6247880;22;20064;-93
2022/06/27 06:16:29;;;;;;;9.50;4.78;;;16.70;99.90;;;;;;6249598;22;20015;-93
2022/06/27 06:18:57;;;;;;;10.45;4.22;;;15.80;99.90;;;;;;6249166;22;20047;-92
2022/06/27 06:21:29;;;;;;;12.13;4.80;;;15.90;99.90;;;;;;6249279;22;20003;-93
2022/06/27 06:24:02;;;;;;;8.82;4.18;;;15.70;99.90;;;;;;6276621;22;20440;-93
2022/06/27 06:26:45;;;;;;;11.23;4.63;;;16.70;99.90;;;;;;6248051;22;20038;-93
2022/06/27 06:29:29;;;;;;;8.90;4.25;;;16.30;99.90;;;;;;6276814;22;20015;-93
2022/06/27 06:31:57;;;;;;;8.73;4.05;;;16.70;99.90;;;;;;6249364;22;20428;-93
2022/06/27 06:34:23;;;;;;;10.45;4.82;;;16.60;99.90;;;;;;6249125;22;20051;-93
2022/06/27 06:36:49;;;;;;;9.40;4.80;;;15.80;99.90;;;;;;6249600;22;20015;-93
2022/06/27 07:17:11;;;;;;;9.90;4.93;;;16.00;99.90;;;;;;6271316;22;20085;-94
2022/06/27 07:26:51;;;;;;;9.68;5.15;;;15.90;99.90;;;;;;6274111;22;20027;-87
2022/06/27 07:29:36;;;;;;;12.45;5.47;;;16.90;99.90;;;;;;6255068;22;20504;-87
2022/06/27 07:32:17;;;;;;;12.25;5.68;;;16.30;99.90;;;;;;6252266;22;20497;-92
2022/06/27 07:35:01;;;;;;;11.65;5.70;;;15.90;99.90;;;;;;6251673;22;20347;-93
2022/06/27 07:41:30;;;;;;;15.80;7.35;;;16.70;99.90;;;;;;6281111;22;20027;-96
2022/06/27 07:44:58;;;;;;;17.30;7.63;;;16.10;99.90;;;;;;6120506;23;20022;-96
2022/06/27 07:47:54;;;;;;;11.10;6.00;;;15.60;99.90;;;;;;6112098;23;20108;-96
2022/06/27 08:21:44;;;;;;;10.45;5.32;;;16.90;99.90;;;;;;6287325;22;20073;-96
2022/06/27 08:24:17;;;;;;;12.23;5.65;;;17.00;99.90;;;;;;6153113;23;20010;-96
2022/06/27 08:37:00;;;;;;;11.38;5.97;;;17.20;99.90;;;;;;6278583;22;20329;-92
2022/06/27 09:25:36;;;;;;;;;;;16.80;99.90;;;;;;6251489;23;20093;-96
2022/06/27 10:37:08;;;;;;;13.45;8.38;;;17.30;99.90;;;;;;6273613;22;20016;-91
2022/06/27 11:04:31;;;;;;;13.23;8.20;;;17.60;99.90;;;;;;6220198;23;20020;-95
2022/06/27 12:39:23;;;;;;;11.20;6.13;;;17.60;99.90;;;;;;6099619;23;20038;-96
2022/06/27 12:56:52;;;;;;;10.10;5.53;;;18.10;99.90;;;;;;6246187;23;20026;-94
2022/06/27 12:59:43;;;;;;;9.50;4.75;;;18.60;99.90;;;;;;6222281;23;20099;-93
2022/06/27 13:02:58;;;;;;;9.15;4.35;;;18.00;99.90;;;;;;6247704;23;20034;-93
2022/06/27 13:23:29;;;;;;;8.25;4.10;;;18.30;99.90;;;;;;6244874;23;20099;-92
2022/06/27 13:26:59;;;;;;;8.57;3.97;;;18.60;99.90;;;;;;6218638;23;20345;-94
2022/06/27 13:33:26;;;;;;;10.07;4.22;;;18.20;99.90;;;;;;6008692;23;20099;-92
2022/06/27 13:42:58;;;;;;;8.77;4.20;;;18.00;99.90;;;;;;6271788;22;20019;-91
2022/06/27 13:46:30;;;;;;;9.40;4.35;;;18.20;99.90;;;;;;6249633;22;20019;-95
2022/06/27 13:57:21;;;;;;;9.45;4.43;;;18.40;99.90;;;;;;6276761;22;20026;-94
2022/06/27 13:59:50;;;;;;;9.60;4.25;;;18.30;99.90;;;;;;6249487;22;20015;-94
2022/06/27 14:10:24;;;;;;;9.13;3.85;;;18.30;99.90;;;;;;6037431;23;20136;-94
2022/06/27 14:15:36;;;;;;;7.82;3.30;;;18.20;99.90;;;;;;6275509;22;20327;-92
2022/06/27 14:18:02;;;;;;;7.80;3.50;;;18.10;99.90;;;;;;6248074;22;20089;-92
2022/06/27 14:20:43;;;;;;;8.45;3.78;;;18.10;99.90;;;;;;6248796;22;20496;-92
2022/06/27 14:23:08;;;;;;;8.07;3.42;;;18.00;99.90;;;;;;6248353;22;20097;-92
2022/06/27 14:28:14;;;;;;;8.50;3.83;;;18.10;99.90;;;;;;6274244;22;20081;-93
2022/06/27 14:30:55;;;;;;;8.77;4.25;;;18.70;99.90;;;;;;6251347;22;20023;-94
2022/06/27 14:48:34;;;;;;;9.57;4.45;;;19.50;99.90;;;;;;6215050;23;20013;-93
2022/06/27 14:51:15;;;;;;;10.13;4.93;;;19.70;99.90;;;;;;6189291;23;20025;-92
2022/06/27 15:13:17;;;;;;;;;;;;;;;;;;;;;
2022/06/27 15:35:10;;;;;;;9.00;3.42;;;20.20;99.90;;;;;;6274117;22;20082;-93
2022/06/27 18:32:36;;;;;;;14.82;8.05;;;14.80;99.90;;;;;;6284995;22;20075;-90
2022/06/27 20:29:19;;;;;;;15.90;8.15;;;15.20;99.90;;;;;;6181499;22;20082;-91
2022/06/27 20:35:14;;;;;;;14.13;8.10;;;16.00;99.90;;;;;;6271785;22;20107;-94
2022/06/27 20:45:15;;;;;;;15.68;9.32;;;15.00;99.90;;;;;;6271343;22;20030;-95
2022/06/27 20:57:40;;;;;;;18.35;8.93;;;14.70;99.90;;;;;;6223339;23;20088;-94
2022/06/27 21:00:09;;;;;;;16.17;9.50;;;14.60;99.90;;;;;;6091921;23;20027;-94
2022/06/27 21:06:20;;;;;;;17.52;10.05;;;14.50;99.90;;;;;;6218179;23;20027;-95
2022/06/27 21:12:52;;;;;;;19.42;10.68;;;14.50;99.90;;;;;;6248526;23;20066;-94
2022/06/27 21:19:11;;;;;;;24.90;12.02;;;14.30;99.90;;;;;;6249327;23;20062;-94
2022/06/27 21:25:20;;;;;;;22.65;13.98;;;14.40;99.90;;;;;;6159676;23;20412;-95
2022/06/27 21:50:43;;;;;;;21.90;13.80;;;14.10;99.90;;;;;;6275708;22;20027;-93
2022/06/27 21:54:15;;;;;;;20.90;14.13;;;14.00;99.90;;;;;;6251868;22;20020;-94
2022/06/27 21:57:33;;;;;;;21.65;13.85;;;13.80;99.90;;;;;;6251246;22;20019;-94
2022/06/27 22:00:56;;;;;;;26.17;15.18;;;13.90;99.90;;;;;;6251172;22;20142;-94
2022/06/27 22:08:03;;;;;;;25.02;15.48;;;13.80;99.90;;;;;;6279179;22;20031;-94
2022/06/27 22:11:35;;;;;;;27.77;15.40;;;14.20;99.90;;;;;;6279776;22;20066;-95
2022/06/27 22:15:04;;;;;;;25.17;16.60;;;13.70;99.90;;;;;;6251405;22;20038;-94
2022/06/27 22:18:32;;;;;;;26.50;16.42;;;14.00;99.90;;;;;;6251605;22;20019;-94
2022/06/27 22:21:02;;;;;;;25.65;16.58;;;14.00;99.90;;;;;;6251281;22;20099;-95
2022/06/27 22:23:37;;;;;;;25.65;16.80;;;14.60;99.90;;;;;;6250971;22;20403;-95
2022/06/27 22:29:34;;;;;;;27.00;17.33;;;13.80;99.90;;;;;;6278694;22;20026;-95
2022/06/27 22:32:06;;;;;;;30.08;17.92;;;14.80;99.90;;;;;;6252450;22;20028;-94
2022/06/27 22:34:40;;;;;;;30.40;19.15;;;13.70;99.90;;;;;;6252142;22;20344;-95
2022/06/27 22:37:21;;;;;;;29.58;17.95;;;14.70;99.90;;;;;;6252485;22;20336;-95
2022/06/27 22:39:46;;;;;;;31.38;19.23;;;14.20;99.90;;;;;;6250379;22;20027;-95
2022/06/27 22:42:27;;;;;;;31.52;19.67;;;13.70;99.90;;;;;;6250225;22;20008;-95
2022/06/27 22:45:03;;;;;;;31.65;20.15;;;14.30;99.90;;;;;;6276960;22;20011;-95
2022/06/27 22:47:32;;;;;;;32.80;19.23;;;13.60;99.90;;;;;;6276835;22;20008;-95
2022/06/27 22:49:58;;;;;;;29.52;18.77;;;14.80;99.90;;;;;;6277166;22;20012;-95
2022/06/27 22:52:26;;;;;;;34.35;19.90;;;14.80;99.90;;;;;;6277110;22;20047;-95
2022/06/27 22:55:10;;;;;;;32.75;18.73;;;14.10;99.90;;;;;;6276305;22;20055;-93
2022/06/27 22:57:45;;;;;;;31.38;19.45;;;13.60;99.90;;;;;;6250056;22;20019;-95
2022/06/27 23:00:27;;;;;;;32.47;19.77;;;13.60;99.90;;;;;;6277529;22;20012;-95
2022/06/27 23:03:11;;;;;;;31.40;18.27;;;13.50;99.90;;;;;;6276860;22;20462;-94
2022/06/27 23:05:42;;;;;;;32.33;19.48;;;14.20;99.90;;;;;;6250033;22;20023;-95
2022/06/27 23:08:08;;;;;;;32.30;20.10;;;14.40;99.90;;;;;;6250425;22;20065;-94
2022/06/27 23:10:53;;;;;;;32.72;19.85;;;14.30;99.90;;;;;;6250101;22;20015;-95
2022/06/27 23:13:19;;;;;;;32.75;19.00;;;13.40;99.90;;;;;;6277883;22;20064;-95
2022/06/27 23:15:54;;;;;;;31.58;19.60;;;13.00;99.90;;;;;;6275936;22;20019;-93
2022/06/27 23:18:26;;;;;;;33.65;19.63;;;13.40;99.90;;;;;;6249676;22;20509;-94
2022/06/27 23:21:06;;;;;;;30.48;18.85;;;13.40;99.90;;;;;;6276242;22;20035;-94
2022/06/27 23:23:38;;;;;;;30.77;18.70;;;14.10;99.90;;;;;;6250054;22;20077;-95
2022/06/27 23:26:07;;;;;;;32.88;18.90;;;13.90;99.90;;;;;;6249174;22;20094;-94
2022/06/27 23:44:42;;;;;;;33.25;18.50;;;13.00;99.90;;;;;;6276328;22;20134;-94
2022/06/27 23:51:53;;;;;;;31.92;17.98;;;13.00;99.90;;;;;;6279554;22;20073;-94
2022/06/27 23:55:22;;;;;;;32.67;19.42;;;12.90;99.90;;;;;;6299318;22;20019;-95
2022/06/27 23:57:48;;;;;;;31.38;18.30;;;12.60;99.90;;;;;;6269216;22;20387;-94
